sensor_id;sensor_type;location;lat;lon;timestamp;pressure;altitude;pressure_sealevel;temperature;humidity
37066;BME280;22981;43.080;25.550;2022-09-09T00:04:29;99561.66;;;22.10;46.52
37066;BME280;22981;43.080;25.550;2022-09-09T00:10:30;99564.40;;;22.08;46.55
37066;BME280;22981;43.080;25.550;2022-09-09T00:13:15;99570.98;;;22.04;46.54
37066;BME280;22981;43.080;25.550;2022-09-09T00:19:05;99574.84;;;22.00;46.62
37066;BME280;22981;43.080;25.550;2022-09-09T00:21:39;99584.44;;;21.98;46.67
37066;BME280;22981;43.080;25.550;2022-09-09T00:24:23;99584.18;;;21.97;46.71
37066;BME280;22981;43.080;25.550;2022-09-09T00:26:48;99580.92;;;21.95;46.81
37066;BME280;22981;43.080;25.550;2022-09-09T00:29:28;99576.02;;;21.94;46.87
37066;BME280;22981;43.080;25.550;2022-09-09T00:31:59;99573.85;;;21.94;46.88
37066;BME280;22981;43.080;25.550;2022-09-09T00:34:27;99571.38;;;21.95;46.78
37066;BME280;22981;43.080;25.550;2022-09-09T00:36:56;99565.09;;;21.97;46.73
37066;BME280;22981;43.080;25.550;2022-09-09T00:39:37;99562.90;;;21.96;46.65
37066;BME280;22981;43.080;25.550;2022-09-09T00:42:24;99553.11;;;21.95;46.65
37066;BME280;22981;43.080;25.550;2022-09-09T00:47:59;99564.31;;;21.94;46.49
37066;BME280;22981;43.080;25.550;2022-09-09T00:50:53;99567.84;;;21.94;46.48
37066;BME280;22981;43.080;25.550;2022-09-09T00:53:27;99561.81;;;21.97;46.43
37066;BME280;22981;43.080;25.550;2022-09-09T00:58:34;99556.85;;;22.02;46.43
37066;BME280;22981;43.080;25.550;2022-09-09T01:01:08;99557.93;;;22.01;46.40
37066;BME280;22981;43.080;25.550;2022-09-09T01:03:37;99554.13;;;22.02;46.25
37066;BME280;22981;43.080;25.550;2022-09-09T01:09:19;99549.96;;;22.07;46.06
37066;BME280;22981;43.080;25.550;2022-09-09T01:12:14;99557.58;;;22.08;46.05
37066;BME280;22981;43.080;25.550;2022-09-09T01:14:49;99551.34;;;22.05;46.13
37066;BME280;22981;43.080;25.550;2022-09-09T01:17:44;99553.11;;;21.95;46.29
37066;BME280;22981;43.080;25.550;2022-09-09T01:20:04;99561.91;;;21.90;46.57
37066;BME280;22981;43.080;25.550;2022-09-09T01:22:35;99555.74;;;21.82;46.92
37066;BME280;22981;43.080;25.550;2022-09-09T01:28:11;99554.87;;;21.62;47.32
37066;BME280;22981;43.080;25.550;2022-09-09T01:30:40;99554.94;;;21.57;47.49
37066;BME280;22981;43.080;25.550;2022-09-09T01:33:12;99553.08;;;21.53;47.61
37066;BME280;22981;43.080;25.550;2022-09-09T01:35:45;99553.64;;;21.52;47.90
37066;BME280;22981;43.080;25.550;2022-09-09T01:38:12;99560.84;;;21.40;48.60
37066;BME280;22981;43.080;25.550;2022-09-09T01:40:40;99559.63;;;21.25;49.50
37066;BME280;22981;43.080;25.550;2022-09-09T01:43:08;99559.25;;;21.05;50.37
37066;BME280;22981;43.080;25.550;2022-09-09T01:45:37;99552.88;;;20.88;50.90
37066;BME280;22981;43.080;25.550;2022-09-09T01:48:06;99554.39;;;20.68;51.42
37066;BME280;22981;43.080;25.550;2022-09-09T01:50:33;99551.47;;;20.59;51.73
37066;BME280;22981;43.080;25.550;2022-09-09T01:53:01;99552.91;;;20.52;52.00
37066;BME280;22981;43.080;25.550;2022-09-09T01:55:32;99550.16;;;20.46;52.19
37066;BME280;22981;43.080;25.550;2022-09-09T01:58:08;99554.02;;;20.43;52.33
37066;BME280;22981;43.080;25.550;2022-09-09T02:00:35;99557.89;;;20.32;52.62
37066;BME280;22981;43.080;25.550;2022-09-09T02:03:06;99558.77;;;20.22;52.93
37066;BME280;22981;43.080;25.550;2022-09-09T02:05:36;99560.98;;;20.15;53.14
37066;BME280;22981;43.080;25.550;2022-09-09T02:08:10;99559.69;;;20.02;53.48
37066;BME280;22981;43.080;25.550;2022-09-09T02:10:46;99558.94;;;19.91;53.88
37066;BME280;22981;43.080;25.550;2022-09-09T02:13:16;99560.30;;;19.89;54.05
37066;BME280;22981;43.080;25.550;2022-09-09T02:16:02;99554.56;;;19.90;54.07
37066;BME280;22981;43.080;25.550;2022-09-09T02:18:32;99554.02;;;19.91;54.02
37066;BME280;22981;43.080;25.550;2022-09-09T02:21:00;99549.13;;;19.90;54.02
37066;BME280;22981;43.080;25.550;2022-09-09T02:23:29;99548.59;;;19.93;53.82
37066;BME280;22981;43.080;25.550;2022-09-09T02:25:59;99542.05;;;19.94;53.71
37066;BME280;22981;43.080;25.550;2022-09-09T02:28:29;99546.42;;;19.90;53.99
37066;BME280;22981;43.080;25.550;2022-09-09T02:30:58;99547.00;;;19.85;54.30
37066;BME280;22981;43.080;25.550;2022-09-09T02:33:30;99545.41;;;19.73;54.61
37066;BME280;22981;43.080;25.550;2022-09-09T02:35:58;99543.81;;;19.70;54.90
37066;BME280;22981;43.080;25.550;2022-09-09T02:38:32;99554.41;;;19.66;54.94
37066;BME280;22981;43.080;25.550;2022-09-09T02:40:59;99554.15;;;19.63;54.96
37066;BME280;22981;43.080;25.550;2022-09-09T02:43:33;99550.04;;;19.60;55.21
37066;BME280;22981;43.080;25.550;2022-09-09T02:46:14;99554.42;;;19.51;55.48
37066;BME280;22981;43.080;25.550;2022-09-09T02:51:32;99548.20;;;19.43;55.69
37066;BME280;22981;43.080;25.550;2022-09-09T02:54:17;99552.28;;;19.35;55.53
37066;BME280;22981;43.080;25.550;2022-09-09T02:56:52;99548.50;;;19.36;55.37
37066;BME280;22981;43.080;25.550;2022-09-09T02:59:16;99543.87;;;19.37;55.41
37066;BME280;22981;43.080;25.550;2022-09-09T03:01:45;99548.22;;;19.38;55.52
37066;BME280;22981;43.080;25.550;2022-09-09T03:04:13;99544.15;;;19.40;55.64
37066;BME280;22981;43.080;25.550;2022-09-09T03:06:41;99534.63;;;19.43;55.53
37066;BME280;22981;43.080;25.550;2022-09-09T03:09:09;99531.91;;;19.45;55.41
37066;BME280;22981;43.080;25.550;2022-09-09T03:11:37;99530.30;;;19.44;55.41
37066;BME280;22981;43.080;25.550;2022-09-09T03:14:05;99539.50;;;19.43;55.43
37066;BME280;22981;43.080;25.550;2022-09-09T03:16:32;99534.61;;;19.50;54.90
37066;BME280;22981;43.080;25.550;2022-09-09T03:19:01;99529.97;;;19.64;54.27
37066;BME280;22981;43.080;25.550;2022-09-09T03:21:29;99530.17;;;19.78;53.76
37066;BME280;22981;43.080;25.550;2022-09-09T03:23:57;99528.21;;;19.91;53.13
37066;BME280;22981;43.080;25.550;2022-09-09T03:26:24;99533.31;;;20.03;52.65
37066;BME280;22981;43.080;25.550;2022-09-09T03:28:52;99538.98;;;20.11;52.31
37066;BME280;22981;43.080;25.550;2022-09-09T03:31:20;99535.93;;;20.20;52.04
37066;BME280;22981;43.080;25.550;2022-09-09T03:33:48;99531.08;;;20.17;52.26
37066;BME280;22981;43.080;25.550;2022-09-09T03:36:15;99546.32;;;20.13;52.32
37066;BME280;22981;43.080;25.550;2022-09-09T03:38:43;99544.70;;;20.10;52.55
37066;BME280;22981;43.080;25.550;2022-09-09T03:41:10;99545.84;;;19.98;53.08
37066;BME280;22981;43.080;25.550;2022-09-09T03:43:39;99545.64;;;19.82;53.69
37066;BME280;22981;43.080;25.550;2022-09-09T03:46:08;99547.36;;;19.63;54.36
37066;BME280;22981;43.080;25.550;2022-09-09T03:48:35;99553.08;;;19.43;54.99
37066;BME280;22981;43.080;25.550;2022-09-09T03:51:03;99552.85;;;19.32;55.30
37066;BME280;22981;43.080;25.550;2022-09-09T03:53:30;99544.20;;;19.15;55.66
37066;BME280;22981;43.080;25.550;2022-09-09T03:55:59;99534.44;;;19.04;56.07
37066;BME280;22981;43.080;25.550;2022-09-09T03:58:28;99544.78;;;18.89;56.52
37066;BME280;22981;43.080;25.550;2022-09-09T04:01:00;99553.17;;;18.82;56.76
37066;BME280;22981;43.080;25.550;2022-09-09T04:03:28;99556.69;;;18.75;56.88
37066;BME280;22981;43.080;25.550;2022-09-09T04:05:58;99556.69;;;18.75;56.88
37066;BME280;22981;43.080;25.550;2022-09-09T04:08:27;99558.34;;;18.76;57.37
37066;BME280;22981;43.080;25.550;2022-09-09T04:10:55;99559.16;;;18.71;57.45
37066;BME280;22981;43.080;25.550;2022-09-09T04:13:25;99559.91;;;18.67;57.62
37066;BME280;22981;43.080;25.550;2022-09-09T04:15:55;99565.33;;;18.57;57.78
37066;BME280;22981;43.080;25.550;2022-09-09T04:18:24;99568.33;;;18.50;58.04
37066;BME280;22981;43.080;25.550;2022-09-09T04:20:53;99570.75;;;18.51;58.15
37066;BME280;22981;43.080;25.550;2022-09-09T04:23:21;99569.38;;;18.54;58.21
37066;BME280;22981;43.080;25.550;2022-09-09T04:25:52;99566.14;;;18.57;58.14
37066;BME280;22981;43.080;25.550;2022-09-09T04:28:22;99566.41;;;18.58;58.18
37066;BME280;22981;43.080;25.550;2022-09-09T04:30:50;99574.02;;;18.56;58.24
37066;BME280;22981;43.080;25.550;2022-09-09T04:33:19;99575.35;;;18.53;58.50
37066;BME280;22981;43.080;25.550;2022-09-09T04:35:49;99574.56;;;18.50;58.56
37066;BME280;22981;43.080;25.550;2022-09-09T04:38:17;99577.27;;;18.50;58.54
37066;BME280;22981;43.080;25.550;2022-09-09T04:40:46;99573.73;;;18.52;58.50
37066;BME280;22981;43.080;25.550;2022-09-09T04:43:14;99571.58;;;18.55;58.49
37066;BME280;22981;43.080;25.550;2022-09-09T04:45:43;99578.88;;;18.54;58.50
37066;BME280;22981;43.080;25.550;2022-09-09T04:48:11;99579.16;;;18.52;58.54
37066;BME280;22981;43.080;25.550;2022-09-09T04:50:38;99589.17;;;18.49;58.62
37066;BME280;22981;43.080;25.550;2022-09-09T04:53:08;99583.50;;;18.46;58.75
37066;BME280;22981;43.080;25.550;2022-09-09T04:55:35;99589.45;;;18.53;58.82
37066;BME280;22981;43.080;25.550;2022-09-09T04:58:07;99585.94;;;18.63;58.79
37066;BME280;22981;43.080;25.550;2022-09-09T05:00:35;99586.23;;;18.69;58.69
37066;BME280;22981;43.080;25.550;2022-09-09T05:03:05;99585.99;;;18.73;58.72
37066;BME280;22981;43.080;25.550;2022-09-09T05:05:35;99593.59;;;18.76;58.76
37066;BME280;22981;43.080;25.550;2022-09-09T05:08:04;99589.53;;;18.81;58.78
37066;BME280;22981;43.080;25.550;2022-09-09T05:10:33;99585.47;;;18.89;58.87
37066;BME280;22981;43.080;25.550;2022-09-09T05:13:02;99583.00;;;18.92;58.95
37066;BME280;22981;43.080;25.550;2022-09-09T05:15:31;99584.38;;;19.03;59.00
37066;BME280;22981;43.080;25.550;2022-09-09T05:18:00;99586.26;;;19.12;58.94
37066;BME280;22981;43.080;25.550;2022-09-09T05:20:28;99575.41;;;19.15;58.93
37066;BME280;22981;43.080;25.550;2022-09-09T05:22:57;99570.78;;;19.20;59.13
37066;BME280;22981;43.080;25.550;2022-09-09T05:25:24;99575.92;;;19.30;59.18
37066;BME280;22981;43.080;25.550;2022-09-09T05:27:52;99575.08;;;19.42;59.01
37066;BME280;22981;43.080;25.550;2022-09-09T05:30:20;99574.78;;;19.51;58.92
37066;BME280;22981;43.080;25.550;2022-09-09T05:32:50;99576.95;;;19.64;58.83
37066;BME280;22981;43.080;25.550;2022-09-09T05:35:17;99571.73;;;19.83;58.46
37066;BME280;22981;43.080;25.550;2022-09-09T05:37:45;99565.34;;;20.08;57.02
37066;BME280;22981;43.080;25.550;2022-09-09T05:40:14;99565.45;;;20.40;55.17
37066;BME280;22981;43.080;25.550;2022-09-09T05:42:42;99560.13;;;20.69;53.66
37066;BME280;22981;43.080;25.550;2022-09-09T05:45:09;99553.11;;;20.94;52.68
37066;BME280;22981;43.080;25.550;2022-09-09T05:47:37;99540.64;;;21.15;51.86
37066;BME280;22981;43.080;25.550;2022-09-09T05:50:05;99542.14;;;21.34;51.16
37066;BME280;22981;43.080;25.550;2022-09-09T05:52:33;99543.04;;;21.50;50.61
37066;BME280;22981;43.080;25.550;2022-09-09T05:55:01;99536.28;;;21.67;50.21
37066;BME280;22981;43.080;25.550;2022-09-09T05:57:30;99538.03;;;21.82;49.57
37066;BME280;22981;43.080;25.550;2022-09-09T05:59:58;99546.84;;;21.95;49.23
37066;BME280;22981;43.080;25.550;2022-09-09T06:02:26;99545.06;;;22.07;49.01
37066;BME280;22981;43.080;25.550;2022-09-09T06:04:54;99539.21;;;22.18;48.45
37066;BME280;22981;43.080;25.550;2022-09-09T06:07:22;99534.38;;;22.32;47.95
37066;BME280;22981;43.080;25.550;2022-09-09T06:09:49;99533.91;;;22.43;47.78
37066;BME280;22981;43.080;25.550;2022-09-09T06:12:17;99532.66;;;22.55;47.76
37066;BME280;22981;43.080;25.550;2022-09-09T06:14:46;99527.58;;;22.64;47.67
37066;BME280;22981;43.080;25.550;2022-09-09T06:17:14;99531.25;;;22.73;47.42
37066;BME280;22981;43.080;25.550;2022-09-09T06:19:41;99519.38;;;22.83;47.21
37066;BME280;22981;43.080;25.550;2022-09-09T06:22:09;99513.51;;;22.92;46.79
37066;BME280;22981;43.080;25.550;2022-09-09T06:24:38;99518.21;;;23.03;46.37
37066;BME280;22981;43.080;25.550;2022-09-09T06:27:06;99520.81;;;23.11;46.16
37066;BME280;22981;43.080;25.550;2022-09-09T06:29:33;99518.19;;;23.19;45.84
37066;BME280;22981;43.080;25.550;2022-09-09T06:32:01;99513.08;;;23.29;45.65
37066;BME280;22981;43.080;25.550;2022-09-09T06:34:29;99510.45;;;23.38;45.60
37066;BME280;22981;43.080;25.550;2022-09-09T06:36:57;99522.61;;;23.45;45.66
37066;BME280;22981;43.080;25.550;2022-09-09T06:39:24;99526.81;;;23.54;45.19
37066;BME280;22981;43.080;25.550;2022-09-09T06:41:52;99527.47;;;23.62;45.44
37066;BME280;22981;43.080;25.550;2022-09-09T06:44:20;99528.95;;;23.71;45.05
37066;BME280;22981;43.080;25.550;2022-09-09T06:46:49;99515.34;;;23.82;44.78
37066;BME280;22981;43.080;25.550;2022-09-09T06:49:16;99519.77;;;23.92;44.59
37066;BME280;22981;43.080;25.550;2022-09-09T06:51:44;99507.55;;;24.01;44.47
37066;BME280;22981;43.080;25.550;2022-09-09T06:54:13;99508.95;;;24.12;44.58
37066;BME280;22981;43.080;25.550;2022-09-09T06:56:41;99514.73;;;24.21;44.19
37066;BME280;22981;43.080;25.550;2022-09-09T06:59:11;99513.44;;;24.30;44.23
37066;BME280;22981;43.080;25.550;2022-09-09T07:01:40;99508.02;;;24.41;43.88
37066;BME280;22981;43.080;25.550;2022-09-09T07:04:08;99506.64;;;24.53;43.54
37066;BME280;22981;43.080;25.550;2022-09-09T07:06:39;99510.24;;;24.62;43.19
37066;BME280;22981;43.080;25.550;2022-09-09T07:09:09;99505.95;;;24.69;42.93
37066;BME280;22981;43.080;25.550;2022-09-09T07:11:43;99509.55;;;24.79;42.80
37066;BME280;22981;43.080;25.550;2022-09-09T07:14:11;99503.27;;;24.89;42.69
37066;BME280;22981;43.080;25.550;2022-09-09T07:16:42;99503.88;;;24.97;42.32
37066;BME280;22981;43.080;25.550;2022-09-09T07:19:10;99501.74;;;25.06;42.21
37066;BME280;22981;43.080;25.550;2022-09-09T07:21:38;99505.41;;;25.12;41.83
37066;BME280;22981;43.080;25.550;2022-09-09T07:24:07;99505.16;;;25.22;41.90
37066;BME280;22981;43.080;25.550;2022-09-09T07:26:37;99505.34;;;25.35;41.94
37066;BME280;22981;43.080;25.550;2022-09-09T07:29:05;99499.66;;;25.42;41.57
37066;BME280;22981;43.080;25.550;2022-09-09T07:31:35;99496.08;;;25.53;41.23
37066;BME280;22981;43.080;25.550;2022-09-09T07:34:04;99499.08;;;25.63;40.98
37066;BME280;22981;43.080;25.550;2022-09-09T07:36:34;99495.22;;;25.72;41.24
37066;BME280;22981;43.080;25.550;2022-09-09T07:39:07;99488.11;;;25.83;40.69
37066;BME280;22981;43.080;25.550;2022-09-09T07:41:47;99492.38;;;25.95;40.54
37066;BME280;22981;43.080;25.550;2022-09-09T07:44:18;99496.94;;;26.08;40.09
37066;BME280;22981;43.080;25.550;2022-09-09T07:46:47;99497.17;;;26.18;40.11
37066;BME280;22981;43.080;25.550;2022-09-09T07:49:15;99492.48;;;26.27;40.05
37066;BME280;22981;43.080;25.550;2022-09-09T07:51:46;99499.51;;;26.39;39.74
37066;BME280;22981;43.080;25.550;2022-09-09T07:54:16;99498.33;;;26.52;39.38
37066;BME280;22981;43.080;25.550;2022-09-09T07:56:46;99501.75;;;26.63;39.09
37066;BME280;22981;43.080;25.550;2022-09-09T07:59:14;99494.34;;;26.73;39.07
37066;BME280;22981;43.080;25.550;2022-09-09T08:01:44;99493.64;;;26.84;38.58
37066;BME280;22981;43.080;25.550;2022-09-09T08:04:15;99500.98;;;26.95;38.51
37066;BME280;22981;43.080;25.550;2022-09-09T08:06:50;99498.77;;;27.03;38.35
37066;BME280;22981;43.080;25.550;2022-09-09T08:09:14;99498.28;;;27.10;37.90
37066;BME280;22981;43.080;25.550;2022-09-09T08:11:43;99498.93;;;27.15;37.94
37066;BME280;22981;43.080;25.550;2022-09-09T08:14:11;99494.89;;;27.28;37.89
37066;BME280;22981;43.080;25.550;2022-09-09T08:16:47;99495.80;;;27.40;37.82
37066;BME280;22981;43.080;25.550;2022-09-09T08:19:15;99488.15;;;27.55;37.59
37066;BME280;22981;43.080;25.550;2022-09-09T08:21:44;99480.22;;;27.68;37.30
37066;BME280;22981;43.080;25.550;2022-09-09T08:24:12;99477.45;;;27.77;37.20
37066;BME280;22981;43.080;25.550;2022-09-09T08:26:47;99472.23;;;27.84;36.88
37066;BME280;22981;43.080;25.550;2022-09-09T08:29:18;99458.87;;;27.94;36.92
37066;BME280;22981;43.080;25.550;2022-09-09T08:31:52;99461.02;;;28.10;36.98
37066;BME280;22981;43.080;25.550;2022-09-09T08:34:17;99461.10;;;28.28;36.64
37066;BME280;22981;43.080;25.550;2022-09-09T08:36:47;99452.48;;;28.44;36.27
37066;BME280;22981;43.080;25.550;2022-09-09T08:39:17;99446.66;;;28.58;35.94
37066;BME280;22981;43.080;25.550;2022-09-09T08:47:51;99444.42;;;28.85;35.88
37066;BME280;22981;43.080;25.550;2022-09-09T08:57:57;99438.84;;;29.24;34.88
37066;BME280;22981;43.080;25.550;2022-09-09T09:00:21;99432.20;;;29.31;34.45
37066;BME280;22981;43.080;25.550;2022-09-09T09:05:37;99425.17;;;29.58;34.32
37066;BME280;22981;43.080;25.550;2022-09-09T09:08:16;99423.91;;;29.68;34.40
37066;BME280;22981;43.080;25.550;2022-09-09T09:10:53;99419.97;;;29.75;34.05
37066;BME280;22981;43.080;25.550;2022-09-09T09:13:26;99423.06;;;29.86;34.12
37066;BME280;22981;43.080;25.550;2022-09-09T09:15:58;99416.45;;;29.97;34.14
37066;BME280;22981;43.080;25.550;2022-09-09T09:18:27;99420.12;;;30.07;34.01
37066;BME280;22981;43.080;25.550;2022-09-09T09:21:04;99415.27;;;30.16;33.78
37066;BME280;22981;43.080;25.550;2022-09-09T09:23:35;99412.58;;;30.26;33.94
37066;BME280;22981;43.080;25.550;2022-09-09T09:26:01;99415.64;;;30.36;33.44
37066;BME280;22981;43.080;25.550;2022-09-09T09:28:31;99420.18;;;30.44;33.57
37066;BME280;22981;43.080;25.550;2022-09-09T09:31:04;99419.09;;;30.55;33.32
37066;BME280;22981;43.080;25.550;2022-09-09T09:36:08;99412.09;;;30.74;32.98
37066;BME280;22981;43.080;25.550;2022-09-09T09:38:36;99403.20;;;30.80;32.96
37066;BME280;22981;43.080;25.550;2022-09-09T09:41:04;99409.03;;;30.85;32.76
37066;BME280;22981;43.080;25.550;2022-09-09T09:43:34;99401.42;;;30.88;32.73
37066;BME280;22981;43.080;25.550;2022-09-09T09:46:04;99402.38;;;30.96;32.59
37066;BME280;22981;43.080;25.550;2022-09-09T09:48:31;99393.06;;;31.10;32.50
37066;BME280;22981;43.080;25.550;2022-09-09T09:51:01;99390.75;;;31.22;32.42
37066;BME280;22981;43.080;25.550;2022-09-09T09:53:31;99387.61;;;31.29;32.28
37066;BME280;22981;43.080;25.550;2022-09-09T09:56:02;99390.67;;;31.34;32.36
37066;BME280;22981;43.080;25.550;2022-09-09T09:58:47;99382.16;;;31.33;32.54
37066;BME280;22981;43.080;25.550;2022-09-09T10:01:18;99382.38;;;31.34;32.67
37066;BME280;22981;43.080;25.550;2022-09-09T10:03:36;99380.56;;;31.32;32.27
37066;BME280;22981;43.080;25.550;2022-09-09T10:06:05;99382.83;;;31.36;32.36
37066;BME280;22981;43.080;25.550;2022-09-09T10:08:43;99379.56;;;31.40;32.39
37066;BME280;22981;43.080;25.550;2022-09-09T10:11:20;99368.80;;;31.45;32.41
37066;BME280;22981;43.080;25.550;2022-09-09T10:16:47;99374.55;;;31.46;32.43
37066;BME280;22981;43.080;25.550;2022-09-09T10:19:16;99378.41;;;31.51;32.18
37066;BME280;22981;43.080;25.550;2022-09-09T10:21:50;99383.22;;;31.54;32.25
37066;BME280;22981;43.080;25.550;2022-09-09T10:24:37;99379.28;;;31.55;32.25
37066;BME280;22981;43.080;25.550;2022-09-09T10:27:19;99375.93;;;31.55;32.07
37066;BME280;22981;43.080;25.550;2022-09-09T10:32:57;99377.73;;;31.48;31.88
37066;BME280;22981;43.080;25.550;2022-09-09T10:38:25;99380.95;;;31.24;31.79
37066;BME280;22981;43.080;25.550;2022-09-09T10:49:08;99372.99;;;31.38;31.85
37066;BME280;22981;43.080;25.550;2022-09-09T10:52:03;99358.02;;;31.39;31.95
37066;BME280;22981;43.080;25.550;2022-09-09T10:54:39;99362.59;;;31.41;31.92
37066;BME280;22981;43.080;25.550;2022-09-09T10:57:29;99363.77;;;31.50;31.79
37066;BME280;22981;43.080;25.550;2022-09-09T11:00:03;99360.63;;;31.52;31.78
37066;BME280;22981;43.080;25.550;2022-09-09T11:02:34;99367.05;;;31.56;31.82
37066;BME280;22981;43.080;25.550;2022-09-09T11:05:27;99360.08;;;31.62;31.81
37066;BME280;22981;43.080;25.550;2022-09-09T11:12:52;99352.00;;;31.82;31.74
37066;BME280;22981;43.080;25.550;2022-09-09T11:15:28;99346.70;;;31.93;31.50
37066;BME280;22981;43.080;25.550;2022-09-09T11:18:00;99352.80;;;32.02;31.21
37066;BME280;22981;43.080;25.550;2022-09-09T11:20:24;99358.13;;;32.01;31.24
37066;BME280;22981;43.080;25.550;2022-09-09T11:23:04;99347.36;;;31.96;31.11
37066;BME280;22981;43.080;25.550;2022-09-09T11:25:37;99339.27;;;31.97;31.45
37066;BME280;22981;43.080;25.550;2022-09-09T11:28:46;99332.04;;;32.02;31.31
37066;BME280;22981;43.080;25.550;2022-09-09T11:31:38;99331.59;;;32.10;31.27
37066;BME280;22981;43.080;25.550;2022-09-09T11:34:17;99336.89;;;32.19;31.22
37066;BME280;22981;43.080;25.550;2022-09-09T11:36:51;99325.12;;;32.02;31.11
37066;BME280;22981;43.080;25.550;2022-09-09T11:39:58;99327.08;;;31.73;31.20
37066;BME280;22981;43.080;25.550;2022-09-09T11:42:22;99315.20;;;31.43;31.62
37066;BME280;22981;43.080;25.550;2022-09-09T11:44:51;99330.48;;;31.11;32.02
37066;BME280;22981;43.080;25.550;2022-09-09T11:47:30;99321.78;;;30.93;32.31
37066;BME280;22981;43.080;25.550;2022-09-09T11:52:48;99308.50;;;30.67;32.60
37066;BME280;22981;43.080;25.550;2022-09-09T11:55:30;99306.57;;;30.62;32.71
37066;BME280;22981;43.080;25.550;2022-09-09T12:00:34;99306.81;;;30.63;32.72
37066;BME280;22981;43.080;25.550;2022-09-09T12:03:04;99299.67;;;30.93;32.64
37066;BME280;22981;43.080;25.550;2022-09-09T12:05:43;99297.69;;;31.20;32.45
37066;BME280;22981;43.080;25.550;2022-09-09T12:08:16;99300.66;;;31.21;32.15
37066;BME280;22981;43.080;25.550;2022-09-09T12:10:53;99295.22;;;31.24;32.20
37066;BME280;22981;43.080;25.550;2022-09-09T12:13:27;99290.59;;;31.48;31.87
37066;BME280;22981;43.080;25.550;2022-09-09T12:15:57;99288.61;;;31.77;31.56
37066;BME280;22981;43.080;25.550;2022-09-09T12:18:36;99290.39;;;31.66;31.32
37066;BME280;22981;43.080;25.550;2022-09-09T12:21:16;99286.02;;;31.46;31.56
37066;BME280;22981;43.080;25.550;2022-09-09T12:23:47;99280.42;;;31.26;31.91
37066;BME280;22981;43.080;25.550;2022-09-09T12:36:50;99265.30;;;30.75;32.60
37066;BME280;22981;43.080;25.550;2022-09-09T12:39:22;99261.45;;;30.64;32.60
37066;BME280;22981;43.080;25.550;2022-09-09T12:41:53;99264.39;;;30.55;32.85
37066;BME280;22981;43.080;25.550;2022-09-09T12:44:24;99262.62;;;30.47;33.18
37066;BME280;22981;43.080;25.550;2022-09-09T12:46:54;99265.12;;;30.36;33.33
37066;BME280;22981;43.080;25.550;2022-09-09T12:49:37;99266.33;;;30.29;33.57
37066;BME280;22981;43.080;25.550;2022-09-09T12:52:08;99263.16;;;30.21;33.53
37066;BME280;22981;43.080;25.550;2022-09-09T12:54:36;99262.04;;;30.10;33.84
37066;BME280;22981;43.080;25.550;2022-09-09T12:57:09;99260.61;;;30.00;34.07
37066;BME280;22981;43.080;25.550;2022-09-09T12:59:39;99261.58;;;29.92;34.23
37066;BME280;22981;43.080;25.550;2022-09-09T13:02:22;99257.81;;;29.84;34.34
37066;BME280;22981;43.080;25.550;2022-09-09T13:04:51;99256.12;;;29.80;34.46
37066;BME280;22981;43.080;25.550;2022-09-09T13:07:20;99253.73;;;29.72;34.74
37066;BME280;22981;43.080;25.550;2022-09-09T13:09:49;99262.27;;;29.67;35.08
37066;BME280;22981;43.080;25.550;2022-09-09T13:12:19;99260.24;;;29.64;35.05
37066;BME280;22981;43.080;25.550;2022-09-09T13:14:50;99257.70;;;29.65;35.26
37066;BME280;22981;43.080;25.550;2022-09-09T13:17:21;99260.94;;;29.61;35.29
37066;BME280;22981;43.080;25.550;2022-09-09T13:19:50;99258.52;;;29.53;35.63
37066;BME280;22981;43.080;25.550;2022-09-09T13:22:35;99274.63;;;29.51;35.98
37066;BME280;22981;43.080;25.550;2022-09-09T13:27:50;99267.63;;;29.48;35.57
37066;BME280;22981;43.080;25.550;2022-09-09T13:30:34;99272.34;;;29.47;35.64
37066;BME280;22981;43.080;25.550;2022-09-09T13:35:52;99275.33;;;29.42;35.82
37066;BME280;22981;43.080;25.550;2022-09-09T13:38:19;99273.88;;;29.38;36.09
37066;BME280;22981;43.080;25.550;2022-09-09T13:41:02;99276.63;;;29.32;36.38
37066;BME280;22981;43.080;25.550;2022-09-09T13:43:37;99269.63;;;29.29;36.65
37066;BME280;22981;43.080;25.550;2022-09-09T13:46:04;99276.19;;;29.24;36.74
37066;BME280;22981;43.080;25.550;2022-09-09T13:48:32;99269.87;;;29.24;36.82
37066;BME280;22981;43.080;25.550;2022-09-09T13:51:02;99270.81;;;29.22;36.70
37066;BME280;22981;43.080;25.550;2022-09-09T13:53:31;99269.19;;;29.20;36.56
37066;BME280;22981;43.080;25.550;2022-09-09T13:55:59;99261.27;;;29.19;36.43
37066;BME280;22981;43.080;25.550;2022-09-09T13:58:27;99263.13;;;29.21;36.39
37066;BME280;22981;43.080;25.550;2022-09-09T14:00:55;99265.62;;;29.26;36.48
37066;BME280;22981;43.080;25.550;2022-09-09T14:03:23;99260.55;;;29.28;36.55
37066;BME280;22981;43.080;25.550;2022-09-09T14:05:51;99267.34;;;29.31;37.18
37066;BME280;22981;43.080;25.550;2022-09-09T14:08:25;99266.29;;;29.29;37.28
37066;BME280;22981;43.080;25.550;2022-09-09T14:10:55;99265.16;;;29.30;37.29
37066;BME280;22981;43.080;25.550;2022-09-09T14:13:23;99266.28;;;29.35;36.86
37066;BME280;22981;43.080;25.550;2022-09-09T14:15:51;99267.41;;;29.40;36.78
37066;BME280;22981;43.080;25.550;2022-09-09T14:18:20;99270.39;;;29.41;36.75
37066;BME280;22981;43.080;25.550;2022-09-09T14:20:49;99269.59;;;29.41;36.73
37066;BME280;22981;43.080;25.550;2022-09-09T14:23:17;99271.66;;;29.44;36.68
37066;BME280;22981;43.080;25.550;2022-09-09T14:25:45;99264.88;;;29.41;36.83
37066;BME280;22981;43.080;25.550;2022-09-09T14:28:13;99275.11;;;29.41;36.77
37066;BME280;22981;43.080;25.550;2022-09-09T14:30:42;99273.88;;;29.38;36.61
37066;BME280;22981;43.080;25.550;2022-09-09T14:33:15;99275.94;;;29.35;36.61
37066;BME280;22981;43.080;25.550;2022-09-09T14:35:43;99275.03;;;29.31;36.56
37066;BME280;22981;43.080;25.550;2022-09-09T14:38:11;99276.66;;;29.26;36.68